createdAt,value
2023-05-16T00:01:43.425Z,7.30
2023-05-16T00:03:46.268Z,7.82
2023-05-16T00:05:49.058Z,7.28
2023-05-16T00:07:51.739Z,7.97
2023-05-16T00:09:54.544Z,8.27
2023-05-16T00:11:58.926Z,7.35
2023-05-16T00:14:02.599Z,7.82
2023-05-16T00:16:06.822Z,9.75
2023-05-16T00:18:09.996Z,8.27
2023-05-16T00:20:14.173Z,8.82
2023-05-16T00:22:17.137Z,7.83
2023-05-16T00:24:19.838Z,8.73
2023-05-16T00:26:22.614Z,8.40
2023-05-16T00:28:26.678Z,8.80
2023-05-16T00:30:29.576Z,8.13
2023-05-16T00:32:32.583Z,8.60
2023-05-16T00:34:36.981Z,9.60
2023-05-16T00:36:39.687Z,11.15
2023-05-16T00:38:42.441Z,9.43
2023-05-16T00:40:45.268Z,10.27
2023-05-16T00:42:48.084Z,10.57
2023-05-16T00:44:52.181Z,11.07
2023-05-16T00:46:55.469Z,11.57
2023-05-16T00:48:58.283Z,11.70
2023-05-16T00:51:02.082Z,11.82
2023-05-16T00:53:05.436Z,10.82
2023-05-16T00:55:10.762Z,12.35
2023-05-16T00:57:13.665Z,11.63
2023-05-16T00:59:25.415Z,12.60
2023-05-16T01:01:31.103Z,12.98
2023-05-16T01:03:34.523Z,12.63
2023-05-16T01:05:37.370Z,12.95
2023-05-16T01:07:40.158Z,12.40
2023-05-16T01:09:44.122Z,11.77
2023-05-16T01:11:53.183Z,11.75
2023-05-16T01:14:04.816Z,11.82
2023-05-16T01:16:14.550Z,12.13
2023-05-16T01:18:26.294Z,14.13
2023-05-16T01:20:38.351Z,13.13
2023-05-16T01:22:53.504Z,14.00
2023-05-16T01:25:06.237Z,15.65
2023-05-16T01:27:11.642Z,16.25
2023-05-16T01:29:14.504Z,16.73
2023-05-16T01:31:18.909Z,16.95
2023-05-16T01:33:21.757Z,17.88
2023-05-16T01:35:25.436Z,17.95
2023-05-16T01:37:34.672Z,17.10
2023-05-16T01:39:43.933Z,18.23
2023-05-16T01:41:54.949Z,18.10
2023-05-16T01:44:03.184Z,18.33
2023-05-16T01:46:11.843Z,18.00
2023-05-16T01:48:18.912Z,19.17
2023-05-16T01:50:25.794Z,20.40
2023-05-16T01:52:36.423Z,23.58
2023-05-16T01:54:42.490Z,21.17
2023-05-16T01:56:51.001Z,19.92
2023-05-16T01:58:56.049Z,24.20
2023-05-16T02:01:04.239Z,24.30
2023-05-16T02:03:07.323Z,23.90
2023-05-16T02:05:10.385Z,24.97
2023-05-16T02:07:14.866Z,24.20
2023-05-16T02:09:17.792Z,24.58
2023-05-16T02:11:21.270Z,24.85
2023-05-16T02:13:24.256Z,27.45
2023-05-16T02:15:28.032Z,26.10
2023-05-16T02:17:32.520Z,28.45
2023-05-16T02:19:35.559Z,32.50
2023-05-16T02:21:38.335Z,29.10
2023-05-16T02:23:41.565Z,27.83
2023-05-16T02:25:44.505Z,29.40
2023-05-16T02:27:47.397Z,29.98
2023-05-16T02:29:50.147Z,35.60
2023-05-16T02:31:52.896Z,32.45
2023-05-16T02:33:58.200Z,31.50
2023-05-16T02:36:01.010Z,31.65
2023-05-16T02:38:03.778Z,29.85
2023-05-16T02:40:07.945Z,30.00
2023-05-16T02:42:12.699Z,36.45
2023-05-16T02:44:15.416Z,34.85
2023-05-16T02:46:22.822Z,31.27
2023-05-16T02:48:25.729Z,34.72
2023-05-16T02:50:30.232Z,38.53
2023-05-16T02:52:33.025Z,36.05
2023-05-16T02:54:36.197Z,39.33
2023-05-16T02:56:39.050Z,37.08
2023-05-16T02:58:42.050Z,37.72
2023-05-16T03:00:44.871Z,39.72
2023-05-16T03:02:47.807Z,40.67
2023-05-16T03:04:50.649Z,37.13
2023-05-16T03:06:54.842Z,38.65
2023-05-16T03:08:57.627Z,42.53
2023-05-16T03:11:00.621Z,41.80
2023-05-16T03:13:03.386Z,40.78
2023-05-16T03:15:08.337Z,41.58
2023-05-16T03:17:12.512Z,40.00
2023-05-16T03:19:15.331Z,38.75
2023-05-16T03:21:18.234Z,42.95
2023-05-16T03:23:22.665Z,48.13
2023-05-16T03:25:26.534Z,44.75
2023-05-16T03:27:29.511Z,43.65
2023-05-16T03:29:32.421Z,43.75
2023-05-16T03:31:35.858Z,46.15
2023-05-16T03:33:38.677Z,46.40
2023-05-16T03:35:41.955Z,41.85
2023-05-16T03:37:44.909Z,47.10
2023-05-16T03:39:49.084Z,45.17
2023-05-16T03:41:51.970Z,44.33
2023-05-16T03:43:54.697Z,46.72
2023-05-16T03:45:57.504Z,50.13
2023-05-16T03:48:00.437Z,45.53
2023-05-16T03:50:03.429Z,44.40
2023-05-16T03:52:06.762Z,47.42
2023-05-16T03:54:09.593Z,46.67
2023-05-16T03:56:13.742Z,47.60
2023-05-16T03:58:16.533Z,46.25
2023-05-16T04:00:19.492Z,47.08
2023-05-16T04:02:22.327Z,49.25
2023-05-16T04:04:25.133Z,47.83
2023-05-16T04:06:27.979Z,47.55
2023-05-16T04:08:31.194Z,49.92
2023-05-16T04:10:33.946Z,47.58
2023-05-16T04:12:38.270Z,49.42
2023-05-16T04:14:40.971Z,50.60
2023-05-16T04:16:43.759Z,48.53
2023-05-16T04:18:46.807Z,52.53
2023-05-16T04:20:50.169Z,45.85
2023-05-16T04:22:53.321Z,47.60
2023-05-16T04:24:56.124Z,48.05
2023-05-16T04:26:58.858Z,49.30
2023-05-16T04:29:02.981Z,52.40
2023-05-16T04:31:06.358Z,48.50
2023-05-16T04:33:09.221Z,49.63
2023-05-16T04:35:12.083Z,47.80
2023-05-16T04:37:14.908Z,46.38
2023-05-16T04:39:17.613Z,47.55
2023-05-16T04:41:20.367Z,43.75
2023-05-16T04:43:23.102Z,45.60
2023-05-16T04:45:27.384Z,46.45
2023-05-16T04:47:30.480Z,49.30
2023-05-16T04:49:33.192Z,44.78
2023-05-16T04:51:36.002Z,50.90
2023-05-16T04:53:38.809Z,44.13
2023-05-16T04:55:41.742Z,37.45
2023-05-16T04:57:44.563Z,42.65
2023-05-16T04:59:47.389Z,40.75
2023-05-16T05:01:51.524Z,38.83
2023-05-16T05:03:54.556Z,36.92
2023-05-16T05:05:57.392Z,37.20
2023-05-16T05:08:00.338Z,35.85
2023-05-16T05:10:03.253Z,36.95
2023-05-16T05:12:07.883Z,35.60
2023-05-16T05:14:10.609Z,31.75
2023-05-16T05:16:13.537Z,30.02
2023-05-16T05:18:17.764Z,31.02
2023-05-16T05:20:20.781Z,29.25
2023-05-16T05:22:23.541Z,29.27
2023-05-16T05:24:26.351Z,29.58
2023-05-16T05:26:29.159Z,30.65
2023-05-16T05:28:31.959Z,34.00
2023-05-16T05:30:34.679Z,29.75
2023-05-16T05:32:37.491Z,29.50
2023-05-16T05:34:41.628Z,31.38
2023-05-16T05:36:44.516Z,30.35
2023-05-16T05:38:47.294Z,33.90
2023-05-16T05:40:50.589Z,33.35
2023-05-16T05:42:53.393Z,34.55
2023-05-16T05:44:56.497Z,34.67
2023-05-16T05:46:59.537Z,36.63
2023-05-16T05:49:02.357Z,37.08
2023-05-16T05:51:06.869Z,39.97
2023-05-16T05:53:09.701Z,36.40
2023-05-16T05:55:12.424Z,35.75
2023-05-16T05:57:15.344Z,36.47
2023-05-16T05:59:18.179Z,35.70
2023-05-16T06:01:22.288Z,31.83
2023-05-16T06:03:25.205Z,37.60
2023-05-16T06:05:28.321Z,33.22
2023-05-16T06:07:32.793Z,34.78
2023-05-16T06:09:35.581Z,32.17
2023-05-16T06:11:38.312Z,33.13
2023-05-16T06:13:41.130Z,33.88
2023-05-16T06:15:43.894Z,32.42
2023-05-16T06:17:46.655Z,31.88
2023-05-16T06:19:49.442Z,32.53
2023-05-16T06:21:52.265Z,30.10
2023-05-16T06:23:56.425Z,31.80
2023-05-16T06:25:59.167Z,30.40
2023-05-16T06:28:01.908Z,32.03
2023-05-16T06:30:05.387Z,31.65
2023-05-16T06:32:10.352Z,31.98
2023-05-16T06:34:14.478Z,31.60
2023-05-16T06:36:17.326Z,33.83
2023-05-16T06:38:20.826Z,32.55
2023-05-16T06:40:24.934Z,29.65
2023-05-16T06:42:27.717Z,31.15
2023-05-16T06:44:31.129Z,30.48
2023-05-16T06:46:33.958Z,29.58
2023-05-16T06:48:36.768Z,28.90
2023-05-16T06:50:39.565Z,25.52
2023-05-16T06:52:43.001Z,26.95
2023-05-16T06:54:45.807Z,25.48
2023-05-16T06:56:49.948Z,24.90
2023-05-16T06:58:52.838Z,25.77
2023-05-16T07:00:55.802Z,22.70
2023-05-16T07:02:58.754Z,27.67
2023-05-16T07:05:01.593Z,26.80
2023-05-16T07:07:04.680Z,24.90
2023-05-16T07:09:07.562Z,23.23
2023-05-16T07:11:11.634Z,24.77
2023-05-16T07:13:15.778Z,24.00
2023-05-16T07:15:18.580Z,23.75
2023-05-16T07:17:21.410Z,24.95
2023-05-16T07:19:24.399Z,25.10
2023-05-16T07:21:27.249Z,26.45
2023-05-16T07:23:30.037Z,25.38
2023-05-16T07:25:33.221Z,22.02
2023-05-16T07:27:35.971Z,23.40
2023-05-16T07:29:40.819Z,18.23
2023-05-16T07:31:43.649Z,18.90
2023-05-16T07:33:46.935Z,16.13
2023-05-16T07:35:49.966Z,15.82
2023-05-16T07:37:52.729Z,16.25
2023-05-16T07:39:55.838Z,13.25
2023-05-16T07:41:58.631Z,13.07
2023-05-16T07:44:01.427Z,11.88
2023-05-16T07:46:07.006Z,11.32
2023-05-16T07:48:09.929Z,12.95
2023-05-16T07:50:13.079Z,12.60
2023-05-16T07:52:15.898Z,10.75
2023-05-16T07:54:18.842Z,9.52
2023-05-16T07:56:21.790Z,10.50
2023-05-16T07:58:24.649Z,10.73
2023-05-16T08:00:27.485Z,10.38
2023-05-16T08:02:31.965Z,10.57
2023-05-16T08:04:35.132Z,10.07
2023-05-16T08:06:38.221Z,10.80
2023-05-16T08:08:41.028Z,9.68
2023-05-16T08:10:43.969Z,11.27
2023-05-16T08:12:48.309Z,11.32
2023-05-16T08:14:51.224Z,9.55
2023-05-16T08:16:54.024Z,9.50
2023-05-16T08:18:58.258Z,10.02
2023-05-16T08:21:01.049Z,10.02
2023-05-16T08:23:04.016Z,10.07
2023-05-16T08:25:09.008Z,9.15
2023-05-16T08:27:12.152Z,8.20
2023-05-16T08:29:14.956Z,9.25
2023-05-16T08:31:17.854Z,7.80
2023-05-16T08:33:20.673Z,9.32
2023-05-16T08:35:24.957Z,8.85
2023-05-16T08:37:27.792Z,8.75
2023-05-16T08:39:31.322Z,7.38
2023-05-16T08:41:34.438Z,7.13
2023-05-16T08:43:37.275Z,7.57
2023-05-16T08:45:41.776Z,9.65
2023-05-16T08:47:46.431Z,8.52
2023-05-16T08:49:52.278Z,8.57
2023-05-16T08:51:59.294Z,7.60
2023-05-16T08:54:07.273Z,8.30
2023-05-16T08:56:11.606Z,10.82
2023-05-16T08:58:14.784Z,8.93
2023-05-16T09:00:19.434Z,8.85
2023-05-16T09:02:22.768Z,9.52
2023-05-16T09:04:27.736Z,12.48
2023-05-16T09:06:31.062Z,10.52
2023-05-16T09:08:35.462Z,12.18
2023-05-16T09:10:38.364Z,16.75
2023-05-16T09:12:42.185Z,14.32
2023-05-16T09:14:45.343Z,15.30
2023-05-16T09:17:04.822Z,17.85
2023-05-16T09:19:07.694Z,17.00
2023-05-16T09:21:11.499Z,24.80
2023-05-16T09:23:14.784Z,18.10
2023-05-16T09:25:29.417Z,21.58
2023-05-16T09:27:33.557Z,19.70
2023-05-16T09:29:37.083Z,19.45
2023-05-16T09:31:40.412Z,20.35
2023-05-16T09:33:43.585Z,20.00
2023-05-16T09:35:46.452Z,20.80
2023-05-16T09:37:50.637Z,19.58
2023-05-16T09:39:55.587Z,19.90
2023-05-16T09:42:01.761Z,19.52
2023-05-16T09:44:06.016Z,20.83
2023-05-16T09:46:08.977Z,20.05
2023-05-16T09:48:16.657Z,21.70
2023-05-16T09:50:20.040Z,21.88
2023-05-16T09:52:22.934Z,19.60
2023-05-16T09:54:35.725Z,19.45
2023-05-16T09:56:50.601Z,20.08
2023-05-16T09:58:55.044Z,18.85
2023-05-16T10:00:58.675Z,21.05
2023-05-16T10:03:05.331Z,18.80
2023-05-16T10:05:09.616Z,22.77
2023-05-16T10:07:13.903Z,21.58
2023-05-16T10:09:17.572Z,19.40
2023-05-16T10:11:21.670Z,19.27
2023-05-16T10:13:25.414Z,18.77
2023-05-16T10:15:30.605Z,19.25
2023-05-16T10:17:36.109Z,17.95
2023-05-16T10:19:40.589Z,18.02
2023-05-16T10:21:47.626Z,17.42
2023-05-16T10:23:53.545Z,20.38
2023-05-16T10:25:58.751Z,18.95
2023-05-16T10:28:02.239Z,17.08
2023-05-16T10:30:05.833Z,17.58
2023-05-16T10:32:12.420Z,17.98
2023-05-16T10:34:17.322Z,17.83
2023-05-16T10:36:20.412Z,18.70
2023-05-16T10:38:24.449Z,16.05
2023-05-16T10:40:28.546Z,15.18
2023-05-16T10:42:33.434Z,16.05
2023-05-16T10:44:39.897Z,16.10
2023-05-16T10:46:43.366Z,14.38
2023-05-16T10:48:49.631Z,14.73
2023-05-16T10:50:53.897Z,14.05
2023-05-16T10:52:56.790Z,13.25
2023-05-16T10:55:04.269Z,13.83
2023-05-16T10:57:10.535Z,13.48
2023-05-16T10:59:28.384Z,12.52
2023-05-16T11:01:33.385Z,15.02
2023-05-16T11:03:36.336Z,12.15
2023-05-16T11:05:40.768Z,11.25
2023-05-16T11:07:43.574Z,9.93
2023-05-16T11:09:46.972Z,12.27
2023-05-16T11:11:56.534Z,10.65
2023-05-16T11:14:04.318Z,10.00
2023-05-16T11:16:29.690Z,13.25
2023-05-16T11:18:34.351Z,8.65
2023-05-16T11:20:39.285Z,7.85
2023-05-16T11:22:43.403Z,8.90
2023-05-16T11:24:54.943Z,9.52
2023-05-16T11:26:58.571Z,7.72
2023-05-16T11:29:03.985Z,8.60
2023-05-16T11:31:06.941Z,7.05
2023-05-16T11:33:09.883Z,7.20
2023-05-16T11:35:25.512Z,6.60
2023-05-16T11:37:28.392Z,6.57
2023-05-16T11:39:33.551Z,7.18
2023-05-16T11:41:36.874Z,13.55
2023-05-16T11:43:41.459Z,6.53
2023-05-16T11:45:45.482Z,6.95
2023-05-16T11:47:49.808Z,5.03
2023-05-16T11:49:58.691Z,7.40
2023-05-16T11:52:01.495Z,5.90
2023-05-16T11:54:05.283Z,6.07
2023-05-16T11:56:09.847Z,5.40
2023-05-16T11:58:13.209Z,6.57
2023-05-16T12:00:17.718Z,6.00
2023-05-16T12:02:20.529Z,5.40
2023-05-16T12:04:23.460Z,6.68
2023-05-16T12:06:27.294Z,5.63
2023-05-16T12:08:30.765Z,6.03
2023-05-16T12:10:35.072Z,6.25
2023-05-16T12:12:42.006Z,5.97
2023-05-16T12:14:45.360Z,6.82
2023-05-16T12:16:52.056Z,7.53
2023-05-16T12:18:55.137Z,8.93
2023-05-16T12:20:57.992Z,7.50
2023-05-16T12:23:00.840Z,7.55
2023-05-16T12:25:28.822Z,7.05
2023-05-16T12:27:31.889Z,7.25
2023-05-16T12:29:36.093Z,6.90
2023-05-16T12:31:41.553Z,7.30
2023-05-16T12:33:46.610Z,6.90
2023-05-16T12:35:51.544Z,6.50
2023-05-16T12:37:54.461Z,5.93
2023-05-16T12:40:01.441Z,6.30
2023-05-16T12:42:06.716Z,5.28
2023-05-16T12:44:13.706Z,6.65
2023-05-16T12:46:17.994Z,4.65
2023-05-16T12:48:21.632Z,5.03
2023-05-16T12:50:27.767Z,4.07
2023-05-16T12:52:30.860Z,4.22
2023-05-16T12:54:33.923Z,5.47
2023-05-16T12:56:36.774Z,4.38
2023-05-16T12:58:39.848Z,7.13
2023-05-16T13:00:42.953Z,3.63
2023-05-16T13:02:47.742Z,4.30
2023-05-16T13:04:50.611Z,3.85
2023-05-16T13:08:59.415Z,3.95
2023-05-16T13:11:02.212Z,4.07
2023-05-16T13:13:05.081Z,6.05
2023-05-16T13:15:09.707Z,4.70
2023-05-16T13:17:12.823Z,6.47
2023-05-16T13:19:17.307Z,5.38
2023-05-16T13:21:20.317Z,5.25
2023-05-16T13:23:23.128Z,8.25
2023-05-16T13:25:26.203Z,4.80
2023-05-16T13:27:29.224Z,5.60
2023-05-16T13:29:32.458Z,6.10
2023-05-16T13:31:35.346Z,4.50
2023-05-16T13:33:38.154Z,6.72
2023-05-16T13:35:42.273Z,5.03
2023-05-16T13:37:45.075Z,4.60
2023-05-16T13:39:47.881Z,5.07
2023-05-16T13:41:50.736Z,4.57
2023-05-16T13:43:53.649Z,4.63
2023-05-16T13:45:57.159Z,6.28
2023-05-16T13:48:00.067Z,3.80
2023-05-16T13:50:09.256Z,3.97
2023-05-16T13:52:16.108Z,5.78
2023-05-16T13:54:18.898Z,3.88
2023-05-16T13:56:22.075Z,6.22
2023-05-16T13:58:24.899Z,5.45
2023-05-16T14:00:43.258Z,3.63
2023-05-16T14:02:47.775Z,5.55
2023-05-16T14:04:51.013Z,4.22
2023-05-16T14:06:54.567Z,3.40
2023-05-16T14:08:58.724Z,3.50
2023-05-16T14:11:01.522Z,3.90
2023-05-16T14:13:04.287Z,4.35
2023-05-16T14:15:08.482Z,4.47
2023-05-16T14:17:11.240Z,4.05
2023-05-16T14:19:19.154Z,10.10
2023-05-16T14:21:22.456Z,5.32
2023-05-16T14:23:25.230Z,5.13
2023-05-16T14:25:29.988Z,6.40
2023-05-16T14:27:33.066Z,6.88
2023-05-16T14:29:37.546Z,5.18
2023-05-16T14:31:40.979Z,3.58
2023-05-16T14:33:43.980Z,3.75
2023-05-16T14:35:48.628Z,3.72
2023-05-16T14:37:51.827Z,3.95
2023-05-16T14:39:55.179Z,5.93
2023-05-16T14:41:59.335Z,3.03
2023-05-16T14:44:02.229Z,4.80
2023-05-16T14:46:05.196Z,4.40
2023-05-16T14:48:08.890Z,3.70
2023-05-16T14:50:12.581Z,4.45
2023-05-16T14:52:15.386Z,5.45
2023-05-16T14:54:18.566Z,3.95
2023-05-16T14:56:21.921Z,6.40
2023-05-16T14:58:26.105Z,3.97
2023-05-16T15:00:29.176Z,6.97
2023-05-16T15:02:32.434Z,4.53
2023-05-16T15:04:35.751Z,5.10
2023-05-16T15:06:38.523Z,3.60
2023-05-16T15:08:41.545Z,5.10
2023-05-16T15:10:44.356Z,4.95
2023-05-16T15:12:47.175Z,5.88
2023-05-16T15:14:51.368Z,4.70
2023-05-16T15:16:54.288Z,3.38
2023-05-16T15:18:57.215Z,6.13
2023-05-16T15:21:00.081Z,5.95
2023-05-16T15:23:02.912Z,3.65
2023-05-16T15:25:07.478Z,3.47
2023-05-16T15:27:10.433Z,6.20
2023-05-16T15:29:13.338Z,5.35
2023-05-16T15:31:17.783Z,4.47
2023-05-16T15:33:20.546Z,5.88
2023-05-16T15:35:23.345Z,3.10
2023-05-16T15:37:26.340Z,4.32
2023-05-16T15:39:29.152Z,6.22
2023-05-16T15:43:39.878Z,6.82
2023-05-16T15:45:44.866Z,6.68
2023-05-16T15:47:49.099Z,3.67
2023-05-16T15:49:51.901Z,4.25
2023-05-16T15:51:55.359Z,3.65
2023-05-16T15:53:58.130Z,5.15
2023-05-16T15:56:00.899Z,4.55
2023-05-16T15:58:03.916Z,5.65
2023-05-16T16:00:08.126Z,8.38
2023-05-16T16:02:14.465Z,5.45
2023-05-16T16:04:21.691Z,8.05
2023-05-16T16:06:26.011Z,6.88
2023-05-16T16:08:28.877Z,5.35
2023-05-16T16:10:32.271Z,6.82
2023-05-16T16:12:36.917Z,7.32
2023-05-16T16:14:39.707Z,7.75
2023-05-16T16:16:43.125Z,7.28
2023-05-16T16:18:46.058Z,5.32
2023-05-16T16:20:50.969Z,8.02
2023-05-16T16:22:54.538Z,5.80
2023-05-16T16:24:57.348Z,7.10
2023-05-16T16:27:00.106Z,4.75
2023-05-16T16:29:04.095Z,6.60
2023-05-16T16:31:06.893Z,6.32
2023-05-16T16:33:09.763Z,5.90
2023-05-16T16:35:12.672Z,7.88
2023-05-16T16:37:16.816Z,7.57
2023-05-16T16:39:19.617Z,7.03
2023-05-16T16:41:22.442Z,5.53
2023-05-16T16:43:25.268Z,7.55
2023-05-16T16:45:28.657Z,8.48
2023-05-16T16:47:32.385Z,8.75
2023-05-16T16:49:35.179Z,8.32
2023-05-16T16:51:38.015Z,6.18
2023-05-16T16:53:42.729Z,6.45
2023-05-16T16:55:45.785Z,7.13
2023-05-16T16:57:48.649Z,6.07
2023-05-16T16:59:51.409Z,5.22
2023-05-16T17:01:54.230Z,6.65
2023-05-16T17:03:57.101Z,7.20
2023-05-16T17:05:59.970Z,5.80
2023-05-16T17:08:02.788Z,5.10
2023-05-16T17:10:07.925Z,6.05
2023-05-16T17:12:18.741Z,7.65
2023-05-16T17:14:21.640Z,5.47
2023-05-16T17:16:24.424Z,5.68
2023-05-16T17:18:27.372Z,5.57
2023-05-16T17:20:30.311Z,5.82
2023-05-16T17:22:33.665Z,5.97
2023-05-16T17:24:36.669Z,4.20
2023-05-16T17:26:40.923Z,5.60
2023-05-16T17:28:43.727Z,8.15
2023-05-16T17:30:46.595Z,6.38
2023-05-16T17:32:49.453Z,5.70
2023-05-16T17:34:53.980Z,8.73
2023-05-16T17:36:56.778Z,8.25
2023-05-16T17:38:59.645Z,7.68
2023-05-16T17:41:02.469Z,5.47
2023-05-16T17:43:06.650Z,7.03
2023-05-16T17:45:11.902Z,5.80
2023-05-16T17:47:14.777Z,5.80
2023-05-16T17:49:17.696Z,6.28
2023-05-16T17:51:20.493Z,5.35
2023-05-16T17:53:23.868Z,5.28
2023-05-16T17:55:26.809Z,5.20
2023-05-16T17:57:29.741Z,3.58
2023-05-16T17:59:34.007Z,4.05
2023-05-16T18:01:36.828Z,5.30
2023-05-16T18:03:41.232Z,4.75
2023-05-16T18:05:44.270Z,7.20
2023-05-16T18:07:47.328Z,5.95
2023-05-16T18:09:50.086Z,9.75
2023-05-16T18:11:54.996Z,7.65
2023-05-16T18:13:57.799Z,11.35
2023-05-16T18:16:02.313Z,5.90
2023-05-16T18:18:05.862Z,5.78
2023-05-16T18:20:12.644Z,6.88
2023-05-16T18:22:15.478Z,8.18
2023-05-16T18:24:18.330Z,6.70
2023-05-16T18:26:21.940Z,5.55
2023-05-16T18:28:24.910Z,7.57
2023-05-16T18:30:27.701Z,6.10
2023-05-16T18:32:31.952Z,6.82
2023-05-16T18:34:35.074Z,6.25
2023-05-16T18:36:37.926Z,4.50
2023-05-16T18:38:40.753Z,8.55
2023-05-16T18:40:47.772Z,5.25
2023-05-16T18:42:51.466Z,7.53
2023-05-16T18:44:54.349Z,4.65
2023-05-16T18:46:58.658Z,2.90
2023-05-16T18:49:03.113Z,6.15
2023-05-16T18:51:06.227Z,3.30
2023-05-16T18:53:09.240Z,4.63
2023-05-16T18:55:12.137Z,4.55
2023-05-16T18:57:14.987Z,6.57
2023-05-16T18:59:18.759Z,5.55
2023-05-16T19:01:22.502Z,8.35
2023-05-16T19:03:25.645Z,4.63
2023-05-16T19:05:30.351Z,5.30
2023-05-16T19:07:33.456Z,3.20
2023-05-16T19:09:36.263Z,3.97
2023-05-16T19:11:39.054Z,4.30
2023-05-16T19:13:43.084Z,2.55
2023-05-16T19:15:45.851Z,3.55
2023-05-16T19:17:48.721Z,5.63
2023-05-16T19:19:51.898Z,8.35
2023-05-16T19:21:56.227Z,5.47
2023-05-16T19:23:59.118Z,6.72
2023-05-16T19:26:02.035Z,4.63
2023-05-16T19:28:05.539Z,4.20
2023-05-16T19:30:09.778Z,5.40
2023-05-16T19:32:12.654Z,3.30
2023-05-16T19:34:15.539Z,2.50
2023-05-16T19:36:21.532Z,2.00
2023-05-16T19:38:26.053Z,3.90
2023-05-16T19:40:29.761Z,3.65
2023-05-16T19:42:32.590Z,3.78
2023-05-16T19:44:35.383Z,5.00
2023-05-16T19:46:39.186Z,4.45
2023-05-16T19:48:42.252Z,5.03
2023-05-16T19:50:45.958Z,8.25
2023-05-16T19:52:48.708Z,4.63
2023-05-16T19:54:53.034Z,4.20
2023-05-16T19:56:56.611Z,5.68
2023-05-16T19:58:59.817Z,6.03
2023-05-16T20:01:02.593Z,3.17
2023-05-16T20:03:05.497Z,8.63
2023-05-16T20:05:09.200Z,5.32
2023-05-16T20:07:12.149Z,6.40
2023-05-16T20:09:15.045Z,5.68
2023-05-16T20:11:19.122Z,5.05
2023-05-16T20:13:22.015Z,3.63
2023-05-16T20:15:24.863Z,4.50
2023-05-16T20:17:27.718Z,3.90
2023-05-16T20:19:30.658Z,9.05
2023-05-16T20:21:33.558Z,4.82
2023-05-16T20:23:37.995Z,4.93
2023-05-16T20:25:40.787Z,3.42
2023-05-16T20:27:44.995Z,3.88
2023-05-16T20:29:49.310Z,3.95
2023-05-16T20:31:52.061Z,4.75
2023-05-16T20:33:54.897Z,4.72
2023-05-16T20:35:57.847Z,3.28
2023-05-16T20:38:00.635Z,3.63
2023-05-16T20:40:03.508Z,4.05
2023-05-16T20:42:10.748Z,3.35
2023-05-16T20:44:15.308Z,4.25
2023-05-16T20:46:18.154Z,3.20
2023-05-16T20:48:21.019Z,4.43
2023-05-16T20:50:23.939Z,2.55
2023-05-16T20:52:27.798Z,2.40
2023-05-16T20:54:30.584Z,3.88
2023-05-16T20:56:33.337Z,2.75
2023-05-16T20:58:36.146Z,2.00
2023-05-16T21:00:40.185Z,3.17
2023-05-16T21:02:42.941Z,2.72
2023-05-16T21:04:45.828Z,3.30
2023-05-16T21:06:48.603Z,5.18
2023-05-16T21:08:51.334Z,4.10
2023-05-16T21:10:54.063Z,4.03
2023-05-16T21:12:56.793Z,2.40
2023-05-16T21:14:59.845Z,5.75
2023-05-16T21:17:04.027Z,3.10
2023-05-16T21:19:06.939Z,3.78
2023-05-16T21:21:09.799Z,2.42
2023-05-16T21:23:12.702Z,3.00
2023-05-16T21:25:15.443Z,4.10
2023-05-16T21:27:18.280Z,5.43
2023-05-16T21:29:21.017Z,3.80
2023-05-16T21:31:24.074Z,4.50
2023-05-16T21:33:28.278Z,3.30
2023-05-16T21:35:31.153Z,4.53
2023-05-16T21:37:34.007Z,3.22
2023-05-16T21:39:36.862Z,5.40
2023-05-16T21:41:39.717Z,2.28
2023-05-16T21:43:42.488Z,2.22
2023-05-16T21:45:45.298Z,2.95
2023-05-16T21:47:48.596Z,1.52
2023-05-16T21:49:52.891Z,5.35
2023-05-16T21:51:55.918Z,3.20
2023-05-16T21:53:58.671Z,4.43
2023-05-16T21:56:01.485Z,8.52
2023-05-16T21:58:04.347Z,2.88
2023-05-16T22:00:09.786Z,4.18
2023-05-16T22:02:12.630Z,3.65
2023-05-16T22:04:15.548Z,3.80
2023-05-16T22:06:19.825Z,5.78
2023-05-16T22:08:22.624Z,7.10
2023-05-16T22:10:28.518Z,3.50
2023-05-16T22:12:31.343Z,4.40
2023-05-16T22:14:34.156Z,5.18
2023-05-16T22:16:37.122Z,2.83
2023-05-16T22:18:40.142Z,3.70
2023-05-16T22:20:43.176Z,2.28
2023-05-16T22:22:47.253Z,3.30
2023-05-16T22:24:50.111Z,4.13
2023-05-16T22:26:52.950Z,3.67
2023-05-16T22:28:55.734Z,4.25
2023-05-16T22:30:58.454Z,2.97
2023-05-16T22:33:01.302Z,3.83
2023-05-16T22:35:04.213Z,3.17
2023-05-16T22:37:07.308Z,2.92
2023-05-16T22:39:11.827Z,3.95
2023-05-16T22:41:14.583Z,4.80
2023-05-16T22:43:17.374Z,2.58
2023-05-16T22:45:20.382Z,3.22
2023-05-16T22:47:23.140Z,2.60
2023-05-16T22:49:26.125Z,5.55
2023-05-16T22:51:28.927Z,2.53
2023-05-16T22:53:31.711Z,2.25
2023-05-16T22:55:35.884Z,4.10
2023-05-16T22:57:38.711Z,3.95
2023-05-16T22:59:41.515Z,2.35
2023-05-16T23:01:44.363Z,3.33
2023-05-16T23:03:47.239Z,3.33
2023-05-16T23:05:50.054Z,3.35
2023-05-16T23:07:52.900Z,2.45
2023-05-16T23:09:55.852Z,2.65
2023-05-16T23:12:00.239Z,3.05
2023-05-16T23:14:03.059Z,2.80
2023-05-16T23:16:06.342Z,2.85
2023-05-16T23:18:09.145Z,4.32
2023-05-16T23:20:13.062Z,2.65
2023-05-16T23:22:15.763Z,3.17
2023-05-16T23:24:18.548Z,2.50
2023-05-16T23:26:21.339Z,2.53
2023-05-16T23:28:25.496Z,1.85
2023-05-16T23:30:28.314Z,3.38
2023-05-16T23:32:31.130Z,3.90
2023-05-16T23:34:33.920Z,4.38
2023-05-16T23:36:36.707Z,5.38
2023-05-16T23:38:39.477Z,2.80
2023-05-16T23:40:42.239Z,6.30
2023-05-16T23:42:45.022Z,3.33
2023-05-16T23:44:49.281Z,2.55
2023-05-16T23:46:52.036Z,5.80
2023-05-16T23:48:57.039Z,2.92
2023-05-16T23:51:00.132Z,2.50
2023-05-16T23:53:03.989Z,2.75
2023-05-16T23:55:07.774Z,2.67
2023-05-16T23:57:10.498Z,3.97
2023-05-16T23:59:13.274Z,3.42
